Time;durP1;ratioP1;P1;durP2;ratioP2;P2;SDS_P1;SDS_P2;PMS_P1;PMS_P2;Temp;Humidity;BMP_temperature;BMP_pressure;BME280_temperature;BME280_humidity;BME280_pressure;Samples;Min_cycle;Max_cycle;Signal;HPM_P1;HPM_P2
2021/03/03 00:00:11;;;;;;;20.85;12.40;;;6.10;99.90;;;;;;5015495;28;20044;-89
2021/03/03 00:02:40;;;;;;;19.42;11.73;;;6.00;99.90;;;;;;5014547;28;20045;-89
2021/03/03 00:05:13;;;;;;;18.73;11.57;;;6.00;99.90;;;;;;5015172;28;20064;-89
2021/03/03 00:07:42;;;;;;;19.02;11.90;;;6.10;99.90;;;;;;5013164;28;20521;-89
2021/03/03 00:10:31;;;;;;;;;;;;;;;;;;;;;
2021/03/03 00:16:31;;;;;;;18.65;11.15;;;6.00;99.90;;;;;;4975842;28;20039;-88
2021/03/03 00:19:03;;;;;;;19.02;11.55;;;5.90;99.90;;;;;;4974760;28;20775;-88
2021/03/03 00:21:38;;;;;;;21.92;12.52;;;6.00;99.90;;;;;;4988862;28;20038;-89
2021/03/03 00:24:07;;;;;;;18.02;11.35;;;5.90;99.90;;;;;;4990147;28;20085;-89
2021/03/03 00:26:34;;;;;;;18.40;11.13;;;5.90;99.90;;;;;;4980816;28;20047;-89
2021/03/03 00:29:00;;;;;;;20.65;11.02;;;5.80;99.90;;;;;;5008222;28;20049;-89
2021/03/03 00:31:26;;;;;;;20.27;12.02;;;5.80;99.90;;;;;;5010788;28;20072;-90
2021/03/03 00:33:55;;;;;;;21.10;12.18;;;5.80;99.90;;;;;;5023599;28;20068;-88
2021/03/03 00:36:26;;;;;;;17.90;11.68;;;5.70;99.90;;;;;;5030937;28;20029;-88
2021/03/03 00:39:09;;;;;;;18.52;11.73;;;5.70;99.90;;;;;;5031430;28;20068;-88
2021/03/03 00:41:35;;;;;;;19.20;11.77;;;5.70;99.90;;;;;;5030944;28;20112;-89
2021/03/03 00:44:04;;;;;;;20.75;12.13;;;5.70;99.90;;;;;;5011677;28;20158;-89
2021/03/03 00:46:32;;;;;;;23.83;13.50;;;5.60;99.90;;;;;;5010657;28;20036;-88
2021/03/03 00:48:59;;;;;;;19.65;11.93;;;5.60;99.90;;;;;;5010598;28;20485;-88
2021/03/03 00:51:28;;;;;;;21.30;11.85;;;5.50;99.90;;;;;;5034435;28;20122;-89
2021/03/03 00:54:02;;;;;;;19.92;11.98;;;5.50;99.90;;;;;;5030038;28;20564;-89
2021/03/03 00:56:36;;;;;;;17.67;11.77;;;5.50;99.90;;;;;;5030976;28;20057;-88
2021/03/03 00:59:10;;;;;;;21.90;12.75;;;5.50;99.90;;;;;;5031214;28;20045;-89
2021/03/03 01:01:38;;;;;;;18.45;10.90;;;5.40;99.90;;;;;;5013547;28;20034;-88
2021/03/03 01:04:16;;;;;;;;;;;;;;;;;;;;;
2021/03/03 01:06:44;;;;;;;21.08;11.93;;;5.40;99.90;;;;;;5014973;28;20474;-87
2021/03/03 01:09:10;;;;;;;22.33;12.68;;;5.50;99.90;;;;;;5012892;28;20390;-87
2021/03/03 01:11:46;;;;;;;19.85;11.93;;;5.40;99.90;;;;;;5014584;28;20057;-87
2021/03/03 01:14:16;;;;;;;19.10;11.25;;;5.30;99.90;;;;;;5013361;28;20072;-88
2021/03/03 01:16:50;;;;;;;18.42;12.00;;;5.30;99.90;;;;;;5013126;28;20030;-88
2021/03/03 01:19:21;;;;;;;18.02;11.82;;;5.30;99.90;;;;;;5014221;28;20029;-88
2021/03/03 01:21:56;;;;;;;19.20;11.85;;;5.20;99.90;;;;;;5013063;28;20076;-88
2021/03/03 01:24:44;;;;;;;21.08;11.63;;;5.30;99.90;;;;;;5016337;28;20084;-87
2021/03/03 01:27:19;;;;;;;19.65;11.82;;;5.20;99.90;;;;;;5010156;28;20038;-88
2021/03/03 01:29:51;;;;;;;20.05;13.07;;;5.10;99.90;;;;;;5016428;28;20133;-88
2021/03/03 01:32:22;;;;;;;20.35;12.15;;;5.10;99.90;;;;;;5016497;28;20469;-88
2021/03/03 01:34:56;;;;;;;19.70;12.10;;;5.10;99.90;;;;;;5012965;28;20042;-88
2021/03/03 01:37:42;;;;;;;22.52;12.55;;;5.10;99.90;;;;;;5012598;28;20034;-87
2021/03/03 01:40:11;;;;;;;17.63;11.73;;;5.10;99.90;;;;;;4985519;28;20043;-88
2021/03/03 01:42:51;;;;;;;19.30;11.50;;;5.10;99.90;;;;;;5012241;28;20041;-88
2021/03/03 01:45:38;;;;;;;19.27;12.40;;;5.10;99.90;;;;;;5013622;28;20030;-88
2021/03/03 01:48:07;;;;;;;23.70;13.27;;;5.00;99.90;;;;;;5017878;28;20478;-87
2021/03/03 01:50:38;;;;;;;22.20;13.13;;;5.00;99.90;;;;;;5016547;28;20029;-87
2021/03/03 01:53:08;;;;;;;23.38;13.45;;;5.00;99.90;;;;;;5017214;28;20552;-88
2021/03/03 01:55:39;;;;;;;24.80;14.15;;;5.00;99.90;;;;;;5016349;28;20046;-87
2021/03/03 01:58:07;;;;;;;21.92;13.07;;;5.00;99.90;;;;;;5017831;28;20077;-88
2021/03/03 02:00:34;;;;;;;19.65;12.18;;;5.00;99.90;;;;;;5000098;28;20033;-87
2021/03/03 02:03:08;;;;;;;20.98;13.23;;;5.00;99.90;;;;;;5000006;28;20494;-88
2021/03/03 02:05:34;;;;;;;20.70;12.35;;;5.00;99.90;;;;;;5016614;28;20038;-87
2021/03/03 02:08:04;;;;;;;23.52;13.18;;;5.00;99.90;;;;;;5000192;28;20120;-88
2021/03/03 02:11:00;;;;;;;19.85;12.45;;;5.00;99.90;;;;;;5016346;28;20222;-89
2021/03/03 02:13:36;;;;;;;23.05;12.35;;;4.90;99.90;;;;;;5016228;28;20048;-88
2021/03/03 02:16:05;;;;;;;19.15;11.65;;;4.90;99.90;;;;;;5017680;28;20030;-88
2021/03/03 02:18:36;;;;;;;20.85;12.50;;;4.80;99.90;;;;;;5016347;28;20053;-88
2021/03/03 02:21:49;;;;;;;22.05;13.27;;;4.80;99.90;;;;;;5017408;28;20034;-88
2021/03/03 02:24:34;;;;;;;19.50;12.25;;;4.80;99.90;;;;;;4996311;28;20128;-87
2021/03/03 02:27:16;;;;;;;;;;;;;;;;;;;;;
2021/03/03 02:29:50;;;;;;;19.15;11.57;;;4.80;99.90;;;;;;5016902;28;20048;-87
2021/03/03 02:32:23;;;;;;;20.52;12.05;;;4.70;99.90;;;;;;5017624;28;20026;-88
2021/03/03 02:34:49;;;;;;;20.98;12.73;;;4.70;99.90;;;;;;5016011;28;20466;-87
2021/03/03 02:37:32;;;;;;;;;;;;;;;;;;;;;
2021/03/03 02:40:02;;;;;;;19.35;11.50;;;4.70;99.90;;;;;;5017733;28;20036;-88
2021/03/03 02:42:28;;;;;;;18.92;12.07;;;4.70;99.90;;;;;;5016312;28;20430;-89
2021/03/03 02:44:57;;;;;;;20.35;11.77;;;4.70;99.90;;;;;;5015789;28;20037;-88
2021/03/03 02:47:24;;;;;;;18.63;11.65;;;4.70;99.90;;;;;;5016020;28;20038;-88
2021/03/03 02:49:51;;;;;;;19.63;12.10;;;4.70;99.90;;;;;;4999576;28;20037;-87
2021/03/03 02:52:22;;;;;;;21.23;12.80;;;4.60;99.90;;;;;;5015924;28;20113;-88
2021/03/03 02:54:58;;;;;;;19.05;11.32;;;4.60;99.90;;;;;;5015795;28;20244;-88
2021/03/03 02:57:34;;;;;;;20.45;13.15;;;4.60;99.90;;;;;;5015052;28;20049;-87
2021/03/03 03:00:06;;;;;;;22.08;12.10;;;4.50;99.90;;;;;;5015875;28;20041;-89
2021/03/03 03:03:01;;;;;;;;;;;;;;;;;;;;;
2021/03/03 03:05:35;;;;;;;20.85;11.90;;;4.50;99.90;;;;;;5017113;28;20026;-88
2021/03/03 03:08:06;;;;;;;21.65;12.38;;;4.60;99.90;;;;;;5015315;28;20038;-88
2021/03/03 03:10:38;;;;;;;22.02;12.25;;;4.50;99.90;;;;;;5015629;28;20042;-89
2021/03/03 03:13:35;;;;;;;22.50;12.48;;;4.40;99.90;;;;;;5015512;28;20070;-88
2021/03/03 03:16:26;;;;;;;;;;;;;;;;;;;;;
2021/03/03 03:19:14;;;;;;;;;;;;;;;;;;;;;
2021/03/03 03:21:58;;;;;;;20.10;12.13;;;4.30;99.90;;;;;;5015657;28;20037;-88
2021/03/03 03:24:30;;;;;;;18.58;10.23;;;4.30;99.90;;;;;;5014348;28;20129;-87
2021/03/03 03:27:24;;;;;;;21.75;11.20;;;4.30;99.90;;;;;;5014062;28;20478;-89
2021/03/03 03:30:00;;;;;;;;;;;4.20;99.90;;;;;;5015021;28;20038;-88
2021/03/03 03:35:24;;;;;;;17.23;11.13;;;4.20;99.90;;;;;;5009208;28;20034;-88
2021/03/03 03:38:19;;;;;;;19.15;10.90;;;4.20;99.90;;;;;;5014916;28;20398;-88
2021/03/03 03:40:54;;;;;;;18.35;10.77;;;4.20;99.90;;;;;;5015288;28;20065;-89
2021/03/03 03:43:32;;;;;;;20.08;11.18;;;4.20;99.90;;;;;;4998707;28;20080;-89
2021/03/03 03:46:00;;;;;;;19.10;11.07;;;4.20;99.90;;;;;;5014557;28;20034;-89
2021/03/03 03:48:36;;;;;;;16.58;10.05;;;4.10;99.90;;;;;;5014608;28;20042;-89
2021/03/03 03:51:08;;;;;;;20.45;10.73;;;4.20;99.90;;;;;;5014944;28;20125;-88
2021/03/03 03:53:43;;;;;;;20.17;11.32;;;4.10;99.90;;;;;;5014817;28;20060;-89
2021/03/03 03:56:16;;;;;;;18.42;11.88;;;4.20;99.90;;;;;;5013888;28;20060;-88
2021/03/03 03:59:09;;;;;;;19.38;10.98;;;4.20;99.90;;;;;;5014910;28;20075;-89
2021/03/03 04:01:57;;;;;;;18.98;11.55;;;4.20;99.90;;;;;;5015751;28;20041;-89
2021/03/03 04:04:28;;;;;;;19.58;10.93;;;4.20;99.90;;;;;;4997896;28;20042;-89
2021/03/03 04:07:14;;;;;;;20.88;11.52;;;4.20;99.90;;;;;;5014421;28;20037;-89
2021/03/03 04:10:11;;;;;;;17.85;11.38;;;4.10;99.90;;;;;;5014049;28;20048;-89
2021/03/03 04:12:40;;;;;;;17.08;10.00;;;4.20;99.90;;;;;;5014521;28;20390;-88
2021/03/03 04:15:07;;;;;;;17.38;11.25;;;4.20;99.90;;;;;;4998187;28;20091;-88
2021/03/03 04:18:20;;;;;;;18.73;11.45;;;4.20;99.90;;;;;;5015529;28;20048;-89
2021/03/03 04:20:52;;;;;;;19.23;11.43;;;4.20;99.90;;;;;;5015717;28;20030;-89
2021/03/03 04:23:30;;;;;;;;;;;;;;;;;;;;;
2021/03/03 04:26:13;;;;;;;19.13;11.43;;;4.10;99.90;;;;;;5015912;28;20377;-89
2021/03/03 04:28:45;;;;;;;19.85;11.63;;;4.20;99.90;;;;;;4998873;28;20041;-89
2021/03/03 04:31:55;;;;;;;;;;;;;;;;;;;;;
2021/03/03 04:35:05;;;;;;;;;;;;;;;;;;;;;
2021/03/03 04:38:15;;;;;;;;;;;;;;;;;;;;;
2021/03/03 04:41:18;;;;;;;18.08;11.02;;;4.10;99.90;;;;;;5015708;28;20405;-88
2021/03/03 04:47:02;;;;;;;19.48;11.27;;;4.00;99.90;;;;;;5015527;28;20399;-88
2021/03/03 04:56:11;;;;;;;;;;;;;;;;;;;;;
2021/03/03 04:59:13;;;;;;;;;;;;;;;;;;;;;
2021/03/03 05:01:49;;;;;;;19.63;10.65;;;4.00;99.90;;;;;;5015075;28;20029;-89
2021/03/03 05:04:28;;;;;;;;;;;;;;;;;;;;;
2021/03/03 05:07:13;;;;;;;16.92;10.80;;;4.00;99.90;;;;;;5015187;28;20036;-89
2021/03/03 05:10:23;;;;;;;21.98;11.60;;;3.90;99.90;;;;;;5013703;28;20088;-89
2021/03/03 05:13:21;;;;;;;16.75;10.57;;;3.90;99.90;;;;;;5013533;28;20444;-89
2021/03/03 05:16:47;;;;;;;;;;;;;;;;;;;;;
2021/03/03 05:19:21;;;;;;;19.27;11.35;;;3.90;99.90;;;;;;4996929;28;20052;-90
2021/03/03 05:21:57;;;;;;;;;;;3.90;99.90;;;;;;5013537;28;20030;-89
2021/03/03 05:24:36;;;;;;;;;;;;;;;;;;;;;
2021/03/03 05:36:55;;;;;;;19.67;11.00;;;3.80;99.90;;;;;;4992418;28;20038;-87
2021/03/03 05:39:24;;;;;;;18.85;10.40;;;3.80;99.90;;;;;;4998373;28;20049;-87
2021/03/03 05:42:23;;;;;;;;;;;;;;;;;;;;;
2021/03/03 05:45:26;;;;;;;;;;;;;;;;;;;;;
2021/03/03 05:48:03;;;;;;;19.02;10.75;;;3.80;99.90;;;;;;4992966;28;20026;-88
2021/03/03 05:50:39;;;;;;;18.40;10.93;;;3.80;99.90;;;;;;4978087;28;20053;-88
2021/03/03 05:53:14;;;;;;;18.95;11.15;;;3.80;99.90;;;;;;4971795;28;20035;-87
2021/03/03 05:56:24;;;;;;;19.25;11.30;;;3.70;99.90;;;;;;5011807;28;20077;-88
2021/03/03 06:02:21;;;;;;;19.73;10.55;;;3.70;99.90;;;;;;5032442;28;20333;-89
2021/03/03 06:04:50;;;;;;;18.75;10.55;;;3.80;99.90;;;;;;5031455;28;20041;-89
2021/03/03 06:12:32;;;;;;;19.75;11.48;;;3.80;99.90;;;;;;5035505;28;20045;-90
2021/03/03 06:18:50;;;;;;;;;;;;;;;;;;;;;
2021/03/03 06:21:56;;;;;;;17.65;11.18;;;3.80;99.90;;;;;;5032813;28;20038;-89
2021/03/03 06:28:07;;;;;;;19.13;10.85;;;3.80;99.90;;;;;;4971122;28;20038;-90
2021/03/03 06:31:35;;;;;;;;;;;;;;;;;;;;;
2021/03/03 06:34:59;;;;;;;18.95;10.63;;;3.70;99.90;;;;;;5016984;28;20037;-91
2021/03/03 06:37:30;;;;;;;19.45;10.73;;;3.70;99.90;;;;;;4932831;29;20047;-90
2021/03/03 06:40:44;;;;;;;;;;;;;;;;;;;;;
2021/03/03 06:43:30;;;;;;;17.50;10.30;;;3.80;99.90;;;;;;4950930;28;20049;-89
2021/03/03 06:46:21;;;;;;;16.33;9.65;;;3.80;99.90;;;;;;4961966;28;20038;-89
2021/03/03 06:49:44;;;;;;;;;;;;;;;;;;;;;
2021/03/03 06:52:54;;;;;;;;;;;;;;;;;;;;;
2021/03/03 06:56:07;;;;;;;17.63;9.88;;;3.80;99.90;;;;;;5033349;28;20033;-89
2021/03/03 06:59:35;;;;;;;;;;;;;;;;;;;;;
2021/03/03 07:03:12;;;;;;;;;;;;;;;;;;;;;
2021/03/03 07:06:12;;;;;;;17.73;10.45;;;3.90;99.90;;;;;;4937204;29;20057;-89
2021/03/03 07:16:03;;;;;;;18.60;10.43;;;4.20;99.90;;;;;;5024566;28;20045;-90
2021/03/03 07:23:03;;;;;;;;;;;;;;;;;;;;;
2021/03/03 07:25:58;;;;;;;15.52;9.93;;;4.60;99.90;;;;;;5021016;28;20054;-90
2021/03/03 07:31:45;;;;;;;;;;;;;;;;;;;;;
2021/03/03 07:37:46;;;;;;;20.55;10.55;;;5.00;99.90;;;;;;4990388;28;20034;-90
2021/03/03 07:43:52;;;;;;;;;;;;;;;;;;;;;
2021/03/03 07:57:09;;;;;;;;;;;;;;;;;;;;;
2021/03/03 08:00:42;;;;;;;;;;;;;;;;;;;;;
2021/03/03 08:17:27;;;;;;;;;;;;;;;;;;;;;
2021/03/03 08:20:57;;;;;;;27.42;16.65;;;7.20;99.90;;;;;;4925086;28;20043;-89
2021/03/03 08:27:28;;;;;;;24.35;14.55;;;7.50;99.90;;;;;;4883370;29;20097;-90
2021/03/03 08:37:43;;;;;;;31.63;20.27;;;7.60;99.90;;;;;;4921712;28;20032;-90
2021/03/03 08:44:59;;;;;;;;;;;;;;;;;;;;;
2021/03/03 08:48:12;;;;;;;;;;;;;;;;;;;;;
2021/03/03 08:54:31;;;;;;;30.80;19.65;;;7.80;99.90;;;;;;4897688;29;20019;-92
2021/03/03 09:03:52;;;;;;;35.58;22.17;;;8.20;99.90;;;;;;5035337;23;20407;-89
2021/03/03 09:06:22;;;;;;;30.92;21.70;;;8.30;99.90;;;;;;5032344;28;20090;-89
2021/03/03 09:09:07;;;;;;;33.05;20.65;;;8.40;99.90;;;;;;5012717;28;20074;-90
2021/03/03 09:11:33;;;;;;;37.20;22.10;;;8.50;99.90;;;;;;5013533;28;20030;-90
2021/03/03 09:13:59;;;;;;;39.42;24.80;;;8.60;99.90;;;;;;5014696;28;20040;-89
2021/03/03 09:16:25;;;;;;;43.35;24.02;;;8.60;99.90;;;;;;5016473;28;20025;-90
2021/03/03 09:19:08;;;;;;;36.92;23.65;;;8.70;99.90;;;;;;5027893;28;20033;-89
2021/03/03 09:21:34;;;;;;;37.05;23.92;;;8.90;99.90;;;;;;5019373;28;20037;-91
2021/03/03 09:24:11;;;;;;;35.80;24.27;;;9.10;99.90;;;;;;5019920;28;20087;-92
2021/03/03 09:26:37;;;;;;;34.67;23.98;;;9.20;99.90;;;;;;5012257;28;20025;-91
2021/03/03 09:29:04;;;;;;;30.23;22.55;;;9.30;99.90;;;;;;5011885;28;20037;-90
2021/03/03 09:31:32;;;;;;;35.08;22.63;;;9.40;99.90;;;;;;5016346;28;20112;-90
2021/03/03 09:34:02;;;;;;;32.53;23.08;;;9.50;99.90;;;;;;5015648;28;20487;-91
2021/03/03 09:36:28;;;;;;;33.08;21.65;;;9.80;99.90;;;;;;5013982;28;20030;-90
2021/03/03 09:38:58;;;;;;;34.08;24.13;;;10.10;99.90;;;;;;5024933;28;20030;-90
2021/03/03 09:41:25;;;;;;;33.67;23.88;;;10.60;99.90;;;;;;5015487;28;20084;-91
2021/03/03 09:44:04;;;;;;;40.22;26.63;;;11.00;99.90;;;;;;5014324;28;20488;-91
2021/03/03 09:47:01;;;;;;;35.25;22.75;;;11.30;99.70;;;;;;5026697;28;20061;-90
2021/03/03 09:49:29;;;;;;;32.42;23.02;;;11.40;99.70;;;;;;5022668;28;20479;-90
2021/03/03 09:51:59;;;;;;;38.08;25.33;;;11.50;99.50;;;;;;5018042;28;20061;-90
2021/03/03 09:54:32;;;;;;;34.28;23.70;;;11.70;99.30;;;;;;5016179;28;20061;-89
2021/03/03 09:57:06;;;;;;;37.53;23.53;;;11.60;99.10;;;;;;5022076;28;20645;-91
2021/03/03 09:59:33;;;;;;;31.38;24.23;;;11.40;99.20;;;;;;5016426;28;20038;-91
2021/03/03 10:01:59;;;;;;;31.50;22.08;;;11.30;99.40;;;;;;5016015;28;20041;-91
2021/03/03 10:04:29;;;;;;;39.33;27.65;;;11.30;99.60;;;;;;5031685;28;20045;-90
2021/03/03 10:06:58;;;;;;;38.05;25.63;;;11.30;99.50;;;;;;5018979;28;20087;-91
2021/03/03 10:09:25;;;;;;;35.97;24.55;;;11.20;99.60;;;;;;5026603;28;20033;-90
2021/03/03 10:11:51;;;;;;;32.42;23.63;;;11.10;99.70;;;;;;5050915;28;20034;-90
2021/03/03 10:14:17;;;;;;;33.63;24.98;;;11.10;99.80;;;;;;5043440;28;20083;-90
2021/03/03 10:16:58;;;;;;;34.88;24.35;;;11.10;99.80;;;;;;5033611;28;20093;-91
2021/03/03 10:19:24;;;;;;;36.70;23.20;;;11.10;99.80;;;;;;5036548;28;20121;-89
2021/03/03 10:21:50;;;;;;;32.83;22.65;;;11.10;99.80;;;;;;5021425;28;20049;-90
2021/03/03 10:24:17;;;;;;;34.33;24.73;;;11.20;99.80;;;;;;5029500;28;20542;-88
2021/03/03 10:26:47;;;;;;;33.67;25.05;;;11.20;99.80;;;;;;5019571;28;20138;-90
2021/03/03 10:29:36;;;;;;;40.60;27.23;;;11.30;99.90;;;;;;5019395;28;20041;-89
2021/03/03 10:32:13;;;;;;;34.35;23.92;;;11.30;99.90;;;;;;5018338;28;20505;-88
2021/03/03 10:34:40;;;;;;;35.17;24.10;;;11.30;99.90;;;;;;5020009;28;20033;-90
2021/03/03 10:37:06;;;;;;;31.02;22.13;;;11.40;99.90;;;;;;5020139;28;20040;-90
2021/03/03 10:39:34;;;;;;;32.35;23.70;;;11.50;99.80;;;;;;5007422;28;20031;-91
2021/03/03 10:42:02;;;;;;;35.05;23.70;;;11.50;99.80;;;;;;4999828;28;20120;-90
2021/03/03 10:44:42;;;;;;;37.35;25.08;;;11.60;99.70;;;;;;5018236;28;20049;-90
2021/03/03 10:47:08;;;;;;;40.63;25.77;;;11.80;99.70;;;;;;5019096;28;20037;-91
2021/03/03 10:49:38;;;;;;;38.65;28.23;;;11.90;99.70;;;;;;5018757;28;20120;-90
2021/03/03 10:52:24;;;;;;;34.75;25.10;;;12.10;99.60;;;;;;5036556;28;20033;-91
2021/03/03 10:54:50;;;;;;;45.92;32.78;;;12.50;99.40;;;;;;5018218;28;20029;-90
2021/03/03 10:57:16;;;;;;;43.13;31.30;;;12.80;99.00;;;;;;5021096;28;20390;-89
2021/03/03 10:59:41;;;;;;;43.47;28.63;;;13.10;98.70;;;;;;5034936;28;20578;-90
2021/03/03 11:02:07;;;;;;;37.70;26.05;;;13.50;98.60;;;;;;5035153;28;20060;-90
2021/03/03 11:04:37;;;;;;;42.97;30.83;;;13.90;98.30;;;;;;5036115;28;20052;-87
2021/03/03 11:07:03;;;;;;;41.55;29.92;;;14.00;97.80;;;;;;5021753;28;20954;-93
2021/03/03 11:09:30;;;;;;;46.40;33.53;;;14.20;97.80;;;;;;5039952;28;20025;-90
2021/03/03 11:11:57;;;;;;;48.63;34.20;;;14.70;97.40;;;;;;5033176;28;20128;-89
2021/03/03 11:14:24;;;;;;;46.90;35.35;;;14.90;96.70;;;;;;5019937;28;20033;-91
2021/03/03 11:17:00;;;;;;;55.00;41.05;;;15.30;96.30;;;;;;5018032;28;20030;-92
2021/03/03 11:19:27;;;;;;;49.15;36.55;;;15.40;95.20;;;;;;5026533;28;20044;-91
2021/03/03 11:21:59;;;;;;;49.63;36.78;;;15.80;95.20;;;;;;5024008;28;20043;-91
2021/03/03 11:24:25;;;;;;;42.88;33.53;;;16.30;94.30;;;;;;5034920;28;20040;-90
2021/03/03 11:26:54;;;;;;;44.70;31.02;;;16.60;94.00;;;;;;5028151;28;20036;-93
2021/03/03 11:29:19;;;;;;;49.97;36.80;;;17.10;93.80;;;;;;5030413;28;20052;-91
2021/03/03 11:31:49;;;;;;;42.42;31.33;;;17.40;92.60;;;;;;5040113;28;20079;-93
2021/03/03 11:34:15;;;;;;;56.17;39.15;;;17.60;92.80;;;;;;5034307;28;20037;-92
2021/03/03 11:36:43;;;;;;;44.22;32.78;;;17.70;91.70;;;;;;5020551;28;20033;-91
2021/03/03 11:39:10;;;;;;;47.42;36.30;;;18.00;91.80;;;;;;5027704;28;20034;-90
2021/03/03 11:41:39;;;;;;;43.45;32.53;;;18.20;91.00;;;;;;5028677;28;20765;-91
2021/03/03 11:44:05;;;;;;;47.78;35.88;;;18.30;91.00;;;;;;5015317;28;20132;-89
2021/03/03 11:46:32;;;;;;;54.78;41.67;;;18.50;90.50;;;;;;5016842;28;20036;-90
2021/03/03 11:48:57;;;;;;;55.05;41.42;;;18.60;87.90;;;;;;5021147;28;20040;-90
2021/03/03 11:51:23;;;;;;;53.80;40.45;;;18.10;87.20;;;;;;5033194;28;20132;-88
2021/03/03 11:53:51;;;;;;;55.05;41.35;;;17.80;88.20;;;;;;5019725;28;20030;-92
2021/03/03 11:56:17;;;;;;;58.45;42.70;;;17.70;88.70;;;;;;5019395;28;20026;-94
2021/03/03 11:58:43;;;;;;;65.05;45.92;;;17.40;88.80;;;;;;5019056;28;20483;-91
2021/03/03 12:01:08;;;;;;;57.78;43.03;;;17.00;89.00;;;;;;5034151;28;20029;-89
2021/03/03 12:03:34;;;;;;;59.63;45.15;;;16.90;89.70;;;;;;5033141;28;20064;-88
2021/03/03 12:06:00;;;;;;;64.28;46.42;;;16.90;89.80;;;;;;5014473;28;20101;-90
2021/03/03 12:08:25;;;;;;;62.15;46.63;;;17.20;88.90;;;;;;5014053;28;20039;-90
2021/03/03 12:10:51;;;;;;;62.17;46.88;;;17.50;87.20;;;;;;5017659;28;20021;-90
2021/03/03 12:13:16;;;;;;;64.57;47.13;;;17.60;86.30;;;;;;5017118;28;20128;-91
2021/03/03 12:15:42;;;;;;;62.65;46.67;;;17.70;86.10;;;;;;5026381;28;20047;-90
2021/03/03 12:18:08;;;;;;;61.20;46.55;;;17.50;85.10;;;;;;5016716;28;20034;-90
2021/03/03 12:20:33;;;;;;;60.70;46.47;;;17.20;84.60;;;;;;5016318;28;20051;-90
2021/03/03 12:23:00;;;;;;;65.28;47.75;;;16.80;86.70;;;;;;5016658;28;20056;-90
2021/03/03 12:25:27;;;;;;;55.78;42.00;;;16.50;87.60;;;;;;5027851;28;20037;-90
2021/03/03 12:28:14;;;;;;;62.42;45.38;;;16.60;90.00;;;;;;5103651;27;854056;-89
2021/03/03 12:30:39;;;;;;;59.88;44.50;;;16.70;88.20;;;;;;5093564;28;20462;-90
2021/03/03 12:33:05;;;;;;;60.38;42.63;;;17.10;88.30;;;;;;5093675;28;20016;-90
2021/03/03 12:35:31;;;;;;;57.55;42.95;;;17.40;87.30;;;;;;5093717;28;20020;-90
2021/03/03 12:37:56;;;;;;;62.55;46.53;;;17.60;86.60;;;;;;5093670;28;20020;-92
2021/03/03 12:40:22;;;;;;;65.03;45.90;;;17.60;85.50;;;;;;5093680;28;20020;-90
2021/03/03 12:42:47;;;;;;;55.00;41.90;;;17.30;85.50;;;;;;5093876;28;20027;-91
2021/03/03 12:45:14;;;;;;;55.35;41.70;;;17.10;87.10;;;;;;5111409;28;20019;-89
2021/03/03 12:47:39;;;;;;;55.30;40.47;;;17.00;87.00;;;;;;5094679;28;20028;-89
2021/03/03 12:50:06;;;;;;;59.38;43.80;;;17.10;86.50;;;;;;5087967;28;20020;-88
2021/03/03 12:52:31;;;;;;;57.17;42.00;;;17.50;87.20;;;;;;5110333;28;20629;-89
2021/03/03 12:54:57;;;;;;;55.22;40.28;;;18.10;85.50;;;;;;5092506;28;20032;-89
2021/03/03 12:57:23;;;;;;;48.30;36.58;;;18.50;84.30;;;;;;5092746;28;20052;-90
2021/03/03 12:59:49;;;;;;;54.30;41.70;;;18.90;84.30;;;;;;5079924;28;20028;-90
2021/03/03 13:02:15;;;;;;;58.72;44.90;;;19.20;83.30;;;;;;5092746;28;20099;-90
2021/03/03 13:04:41;;;;;;;57.65;43.65;;;19.40;82.30;;;;;;5093217;28;20056;-91
2021/03/03 13:07:06;;;;;;;55.33;42.90;;;19.40;82.60;;;;;;5093113;28;20464;-91
2021/03/03 13:09:32;;;;;;;62.15;46.92;;;19.40;82.40;;;;;;5088746;28;20022;-91
2021/03/03 13:11:58;;;;;;;58.13;45.85;;;19.10;81.10;;;;;;5090840;28;20028;-91
2021/03/03 13:14:23;;;;;;;54.38;42.20;;;19.20;81.70;;;;;;5090155;28;20458;-92
2021/03/03 13:16:49;;;;;;;60.53;46.65;;;19.30;81.40;;;;;;5081313;28;20027;-90
2021/03/03 13:19:14;;;;;;;45.78;36.78;;;19.40;80.70;;;;;;5110248;28;20197;-90
2021/03/03 13:21:40;;;;;;;46.25;37.47;;;19.50;82.00;;;;;;5082801;28;20028;-92
2021/03/03 13:24:06;;;;;;;62.92;43.70;;;19.70;82.50;;;;;;5072166;28;20024;-92
2021/03/03 13:26:32;;;;;;;52.70;40.22;;;19.80;80.90;;;;;;5072482;28;20535;-90
2021/03/03 13:29:00;;;;;;;56.35;41.08;;;20.00;81.30;;;;;;5074928;28;20032;-91
2021/03/03 13:31:25;;;;;;;51.40;40.08;;;20.10;80.90;;;;;;5077966;28;20021;-92
2021/03/03 13:33:51;;;;;;;49.50;39.92;;;20.10;81.10;;;;;;5086520;28;20028;-93
2021/03/03 13:36:17;;;;;;;47.33;38.58;;;20.10;81.00;;;;;;5086846;28;20024;-91
2021/03/03 13:38:42;;;;;;;42.75;33.95;;;20.20;81.20;;;;;;5066107;28;20024;-91
2021/03/03 13:41:09;;;;;;;47.10;37.58;;;20.40;80.80;;;;;;5056328;28;20021;-90
2021/03/03 13:43:35;;;;;;;50.90;39.92;;;20.40;80.20;;;;;;5055858;28;20111;-91
2021/03/03 13:46:00;;;;;;;54.38;42.38;;;20.30;79.70;;;;;;5070453;28;20117;-91
2021/03/03 13:48:26;;;;;;;52.00;41.38;;;20.20;77.80;;;;;;5071014;28;20013;-92
2021/03/03 13:50:51;;;;;;;52.03;41.28;;;20.10;78.40;;;;;;5077252;28;20024;-92
2021/03/03 13:53:17;;;;;;;49.25;39.08;;;20.00;79.90;;;;;;5078554;28;20036;-90
2021/03/03 13:55:43;;;;;;;44.55;34.40;;;20.10;80.60;;;;;;5077800;28;20024;-91
2021/03/03 13:58:09;;;;;;;47.55;38.63;;;20.20;80.70;;;;;;5069517;28;20039;-91
2021/03/03 14:00:34;;;;;;;59.83;46.78;;;20.30;80.10;;;;;;5074035;28;20386;-93
2021/03/03 14:03:01;;;;;;;53.75;43.80;;;20.20;77.90;;;;;;5069994;28;20052;-91
2021/03/03 14:05:27;;;;;;;60.80;48.60;;;20.00;79.90;;;;;;5062059;28;20560;-90
2021/03/03 14:07:53;;;;;;;55.35;44.78;;;19.60;78.70;;;;;;5070980;28;20032;-92
2021/03/03 14:10:19;;;;;;;57.97;45.55;;;19.30;81.30;;;;;;5060417;28;20021;-89
2021/03/03 14:12:44;;;;;;;50.92;40.35;;;19.20;81.00;;;;;;5065190;28;20590;-91
2021/03/03 14:15:11;;;;;;;52.00;40.85;;;19.10;80.40;;;;;;5061713;28;20705;-90
2021/03/03 14:31:28;;;;;;;48.97;38.47;;;18.30;82.50;;;;;;1454640;22;20297;-92
2021/03/03 14:33:54;;;;;;;43.28;32.85;;;18.10;83.00;;;;;;4937042;28;20413;-92
2021/03/03 14:36:20;;;;;;;42.22;33.65;;;18.00;83.80;;;;;;4940428;29;20019;-90
2021/03/03 14:38:46;;;;;;;48.83;39.03;;;18.10;84.60;;;;;;4936691;29;20023;-90
2021/03/03 14:41:11;;;;;;;47.22;36.55;;;18.20;84.30;;;;;;4937749;29;20031;-91
2021/03/03 14:43:50;;;;;;;;;;;;;;;;;;;;;
2021/03/03 14:46:16;;;;;;;57.90;45.88;;;18.10;83.10;;;;;;4947609;29;20038;-89
2021/03/03 14:48:41;;;;;;;55.03;42.65;;;17.70;84.20;;;;;;4937854;29;20019;-91
2021/03/03 14:51:07;;;;;;;55.10;43.22;;;17.40;85.70;;;;;;4925461;29;20035;-89
2021/03/03 14:53:33;;;;;;;61.13;45.92;;;17.10;86.90;;;;;;4918913;29;20122;-91
2021/03/03 14:56:27;;;;;;;54.65;44.00;;;16.90;87.00;;;;;;4931981;29;20041;-94
2021/03/03 14:59:01;;;;;;;51.22;38.17;;;16.70;86.40;;;;;;4927792;29;20027;-93
2021/03/03 15:01:27;;;;;;;56.05;42.15;;;16.40;86.80;;;;;;4943966;29;20035;-91
2021/03/03 15:03:53;;;;;;;52.25;38.65;;;16.20;87.00;;;;;;4944081;29;20027;-94
2021/03/03 15:06:21;;;;;;;54.67;42.85;;;16.10;87.20;;;;;;4942545;28;20034;-94
2021/03/03 15:08:49;;;;;;;61.47;47.30;;;16.10;89.20;;;;;;4950465;29;20019;-94
2021/03/03 15:11:15;;;;;;;60.30;45.47;;;16.00;90.10;;;;;;4940388;29;20027;-94
2021/03/03 15:13:46;;;;;;;60.42;47.05;;;15.80;89.50;;;;;;4941031;29;20030;-95
2021/03/03 15:16:27;;;;;;;;;;;;;;;;;;;;;
2021/03/03 15:19:36;;;;;;;56.33;40.78;;;15.70;89.60;;;;;;4957084;28;20028;-96
2021/03/03 15:22:12;;;;;;;57.80;43.80;;;15.70;90.60;;;;;;4926630;28;20028;-95
2021/03/03 15:25:54;;;;;;;61.17;46.33;;;15.60;91.30;;;;;;4960977;28;20031;-94
2021/03/03 15:28:54;;;;;;;67.05;49.85;;;15.50;91.30;;;;;;4890709;29;20487;-93
2021/03/03 15:31:19;;;;;;;60.13;43.85;;;15.30;90.90;;;;;;4862321;29;20040;-93
2021/03/03 15:44:53;;;;;;;60.17;46.00;;;15.00;92.60;;;;;;4993564;28;20054;-93
2021/03/03 15:47:19;;;;;;;68.53;51.83;;;14.90;93.40;;;;;;4978315;28;20050;-92
2021/03/03 15:49:45;;;;;;;57.85;44.40;;;14.80;93.70;;;;;;4966502;28;20019;-92
2021/03/03 15:52:11;;;;;;;62.33;45.95;;;14.80;93.90;;;;;;4978459;28;20022;-93
2021/03/03 15:54:39;;;;;;;59.97;45.50;;;14.80;93.60;;;;;;4977687;28;20026;-95
2021/03/03 15:57:21;;;;;;;62.47;45.92;;;14.70;94.20;;;;;;4978932;28;20061;-94
2021/03/03 16:00:10;;;;;;;62.42;46.42;;;14.70;94.50;;;;;;4965608;28;20596;-95
2021/03/03 16:02:36;;;;;;;66.80;49.78;;;14.70;94.90;;;;;;4976845;28;20566;-94
2021/03/03 16:05:07;;;;;;;72.82;54.67;;;14.60;95.20;;;;;;4987609;28;20025;-95
2021/03/03 16:07:38;;;;;;;69.57;52.17;;;14.50;94.70;;;;;;4980406;28;20557;-94
2021/03/03 16:13:23;;;;;;;60.88;44.47;;;14.40;95.30;;;;;;4959754;28;20062;-93
2021/03/03 16:15:48;;;;;;;67.95;48.75;;;14.40;95.30;;;;;;4973619;28;20057;-90
2021/03/03 16:18:14;;;;;;;62.90;46.65;;;14.40;95.70;;;;;;4972776;28;20026;-89